TimeCET,TemperatureF,Dew PointF,Humidity,Sea Level PressureIn,VisibilityMPH,Wind Direction,Wind SpeedMPH,Gust SpeedMPH,PrecipitationIn,Events,Conditions,WindDirDegrees,DateUTC
12:00 AM,46.4,41.0,81,30.15,6.2,SW,4.6,-,N/A,,Mostly Cloudy,230,2012-12-31 23:00:00
12:30 AM,46.4,41.0,81,30.12,6.2,SW,6.9,-,N/A,,Partly Cloudy,230,2012-12-31 23:30:00
1:00 AM,46,40,71,30.14,34,South,3.5,,,,Clear,170,2013-01-01 00:00:00
1:00 AM,46.4,39.2,76,30.12,6.2,South,3.5,-,N/A,,Mostly Cloudy,170,2013-01-01 00:00:00
1:30 AM,44.6,39.2,81,30.12,6.2,SSW,5.8,-,N/A,,Mostly Cloudy,200,2013-01-01 00:30:00
2:00 AM,44.6,39.2,81,30.12,6.2,SSW,4.6,-,N/A,,Unknown,210,2013-01-01 01:00:00
2:30 AM,42.8,39.2,87,30.09,6.2,SW,4.6,-,N/A,,Mostly Cloudy,220,2013-01-01 01:30:00
3:00 AM,42.8,39.2,87,30.09,6.2,SSW,3.5,-,N/A,,Mostly Cloudy,210,2013-01-01 02:00:00
3:30 AM,42.8,37.4,81,30.09,6.2,SSW,6.9,-,N/A,,Scattered Clouds,210,2013-01-01 02:30:00
4:00 AM,42.8,37.4,81,30.09,6.2,SSW,5.8,-,N/A,,Scattered Clouds,210,2013-01-01 03:00:00
4:30 AM,42.8,37.4,81,30.06,6.2,SSW,4.6,-,N/A,,Scattered Clouds,210,2013-01-01 03:30:00
5:00 AM,42.8,37.4,81,30.06,6.2,SW,6.9,-,N/A,,Scattered Clouds,220,2013-01-01 04:00:00
5:30 AM,42.8,37.4,81,30.06,6.2,SW,6.9,-,N/A,,Scattered Clouds,220,2013-01-01 04:30:00
6:05 AM,42.8,37.4,81,30.06,6.2,SW,9.2,-,N/A,,Scattered Clouds,230,2013-01-01 05:05:00
6:30 AM,42.8,37.4,81,30.06,6.2,SW,8.1,-,N/A,,Scattered Clouds,220,2013-01-01 05:30:00
7:00 AM,45,38,68,30.09,16,SW,10.4,,,,Mostly Cloudy,230,2013-01-01 06:00:00
7:00 AM,44.6,37.4,76,30.06,6.2,SW,10.4,-,N/A,,Mostly Cloudy,230,2013-01-01 06:00:00
7:30 AM,46.4,37.4,71,30.06,6.2,SW,9.2,-,N/A,,Mostly Cloudy,220,2013-01-01 06:30:00
8:00 AM,46.4,37.4,71,30.06,6.2,SW,8.1,-,N/A,,Mostly Cloudy,220,2013-01-01 07:00:00
8:30 AM,46.4,37.4,71,30.06,6.2,SW,9.2,-,N/A,,Mostly Cloudy,220,2013-01-01 07:30:00
9:00 AM,42.8,35.6,76,30.06,6.2,South,5.8,-,N/A,,Scattered Clouds,190,2013-01-01 08:00:00
9:30 AM,44.6,37.4,76,30.06,6.2,SSW,5.8,-,N/A,,Scattered Clouds,210,2013-01-01 08:30:00
10:00 AM,46.4,39.2,76,30.09,6.2,SW,6.9,-,N/A,,Scattered Clouds,230,2013-01-01 09:00:00
10:30 AM,51.8,39.2,62,30.09,6.2,SSW,5.8,-,N/A,,Partly Cloudy,210,2013-01-01 09:30:00
10:35 AM,51.8,39.2,62,30.09,6.2,SW,6.9,-,N/A,,Partly Cloudy,220,2013-01-01 09:35:00
11:00 AM,53.6,39.2,58,30.09,6.2,SSW,4.6,-,N/A,,Partly Cloudy,210,2013-01-01 10:00:00
11:30 AM,55.4,41.0,58,30.06,6.2,SSW,4.6,-,N/A,,Partly Cloudy,210,2013-01-01 10:30:00
12:00 PM,57.2,39.2,51,30.06,6.2,SW,4.6,-,N/A,,Partly Cloudy,230,2013-01-01 11:00:00
12:30 PM,57.2,41.0,55,30.06,6.2,Variable,3.5,-,N/A,,Partly Cloudy,0,2013-01-01 11:30:00
1:00 PM,58,43,47,30.05,22,ENE,3.5,,,,Scattered Clouds,60,2013-01-01 12:00:00
1:00 PM,57.2,41.0,55,30.04,6.2,Variable,3.5,-,N/A,,Partly Cloudy,0,2013-01-01 12:00:00
1:30 PM,57.2,42.8,59,30.04,6.2,East,6.9,-,N/A,,Partly Cloudy,100,2013-01-01 12:30:00
2:00 PM,57.2,44.6,63,30.04,6.2,East,6.9,-,N/A,,Scattered Clouds,80,2013-01-01 13:00:00
2:30 PM,57.2,46.4,67,30.04,6.2,ESE,5.8,-,N/A,,Scattered Clouds,120,2013-01-01 13:30:00
3:00 PM,57.2,46.4,67,30.04,6.2,ESE,4.6,-,N/A,,Scattered Clouds,110,2013-01-01 14:00:00
3:30 PM,55.4,44.6,67,30.04,6.2,ESE,4.6,-,N/A,,Mostly Cloudy,110,2013-01-01 14:30:00
4:00 PM,55.4,44.6,67,30.04,6.2,SE,3.5,-,N/A,,Mostly Cloudy,130,2013-01-01 15:00:00
4:30 PM,53.6,44.6,72,30.04,6.2,SE,2.3,-,N/A,,Mostly Cloudy,130,2013-01-01 15:30:00
5:00 PM,53.6,44.6,72,30.04,6.2,SE,3.5,-,N/A,,Mostly Cloudy,130,2013-01-01 16:00:00
5:30 PM,51.8,44.6,76,30.01,6.2,Calm,Calm,-,N/A,,Mostly Cloudy,0,2013-01-01 16:30:00
6:00 PM,51.8,44.6,76,30.01,6.2,Calm,Calm,-,N/A,,Mostly Cloudy,0,2013-01-01 17:00:00
6:30 PM,50.0,44.6,82,30.01,6.2,Variable,2.3,-,N/A,,Mostly Cloudy,0,2013-01-01 17:30:00
7:00 PM,49,44,76,30.03,9,Calm,Calm,,,,Mostly Cloudy,,2013-01-01 18:00:00
7:00 PM,50.0,44.6,82,30.01,6.2,Calm,Calm,-,N/A,,Mostly Cloudy,0,2013-01-01 18:00:00
7:30 PM,48.2,42.8,82,30.01,6.2,SSW,3.5,-,N/A,,Mostly Cloudy,210,2013-01-01 18:30:00
8:00 PM,48.2,42.8,82,30.01,6.2,SW,3.5,-,N/A,,Mostly Cloudy,230,2013-01-01 19:00:00
8:30 PM,48.2,42.8,82,30.01,6.2,Calm,Calm,-,N/A,,Mostly Cloudy,0,2013-01-01 19:30:00
9:00 PM,48.2,42.8,82,30.01,6.2,SSW,2.3,-,N/A,,Mostly Cloudy,200,2013-01-01 20:00:00
9:30 PM,48.2,42.8,82,30.01,6.2,Variable,3.5,-,N/A,,Mostly Cloudy,0,2013-01-01 20:30:00
10:00 PM,48.2,42.8,82,30.01,6.2,SSW,3.5,-,N/A,,Mostly Cloudy,200,2013-01-01 21:00:00
10:30 PM,48.2,42.8,82,30.01,6.2,SSW,3.5,-,N/A,,Mostly Cloudy,200,2013-01-01 21:30:00
11:04 PM,48.2,42.8,82,30.01,6.2,SSW,2.3,-,N/A,,Mostly Cloudy,210,2013-01-01 22:04:00
11:30 PM,48.2,42.8,82,30.01,6.2,SW,3.5,-,N/A,,Mostly Cloudy,220,2013-01-01 22:30:00